createdAt,value
2023-03-03T00:00:40.840Z,0.00
2023-03-03T00:01:40.819Z,0.00
2023-03-03T00:02:40.909Z,0.00
2023-03-03T00:03:40.826Z,0.00
2023-03-03T00:04:40.794Z,0.00
2023-03-03T00:05:40.776Z,0.00
2023-03-03T00:06:40.786Z,0.00
2023-03-03T00:07:40.752Z,0.00
2023-03-03T00:08:40.737Z,0.00
2023-03-03T00:09:40.761Z,0.00
2023-03-03T00:10:40.715Z,0.00
2023-03-03T00:11:40.713Z,0.00
2023-03-03T00:12:40.709Z,0.00
2023-03-03T00:13:40.695Z,0.00
2023-03-03T00:14:40.695Z,0.00
2023-03-03T00:15:40.687Z,0.00
2023-03-03T00:16:40.679Z,0.00
2023-03-03T00:17:40.645Z,0.00
2023-03-03T00:18:40.633Z,0.00
2023-03-03T00:19:40.729Z,0.00
2023-03-03T00:20:40.604Z,0.00
2023-03-03T00:21:40.604Z,0.00
2023-03-03T00:22:40.587Z,0.00
2023-03-03T00:23:40.678Z,0.00
2023-03-03T00:24:40.571Z,0.00
2023-03-03T00:25:40.572Z,0.00
2023-03-03T00:26:40.600Z,0.00
2023-03-03T00:27:40.528Z,0.00
2023-03-03T00:28:40.820Z,0.00
2023-03-03T00:29:40.514Z,0.00
2023-03-03T00:30:40.496Z,0.00
2023-03-03T00:31:40.494Z,0.00
2023-03-03T00:32:40.474Z,0.00
2023-03-03T00:33:40.480Z,0.00
2023-03-03T00:34:40.466Z,0.00
2023-03-03T00:35:40.464Z,0.00
2023-03-03T00:36:40.429Z,0.00
2023-03-03T00:37:40.685Z,0.00
2023-03-03T00:38:40.412Z,0.00
2023-03-03T00:39:40.396Z,0.00
2023-03-03T00:40:40.384Z,0.00
2023-03-03T00:41:40.451Z,0.00
2023-03-03T00:42:40.354Z,0.00
2023-03-03T00:43:40.407Z,0.00
2023-03-03T00:44:40.657Z,0.00
2023-03-03T00:45:40.345Z,0.00
2023-03-03T00:46:40.313Z,0.00
2023-03-03T00:47:40.338Z,0.00
2023-03-03T00:48:40.293Z,0.00
2023-03-03T00:49:40.328Z,0.00
2023-03-03T00:50:40.269Z,0.00
2023-03-03T00:51:40.378Z,0.00
2023-03-03T00:52:40.245Z,0.00
2023-03-03T00:53:40.240Z,0.00
2023-03-03T00:54:40.236Z,0.00
2023-03-03T00:55:40.239Z,0.00
2023-03-03T00:56:40.218Z,0.00
2023-03-03T00:57:40.232Z,0.00
2023-03-03T00:58:40.182Z,0.00
2023-03-03T00:59:40.188Z,0.00
2023-03-03T01:00:40.179Z,0.00
2023-03-03T01:01:40.180Z,0.00
2023-03-03T01:02:40.172Z,0.00
2023-03-03T01:03:40.128Z,0.00
2023-03-03T01:04:40.140Z,0.00
2023-03-03T01:05:40.111Z,0.00
2023-03-03T01:06:40.096Z,0.00
2023-03-03T01:07:40.092Z,0.00
2023-03-03T01:08:40.069Z,0.00
2023-03-03T01:09:40.079Z,0.00
2023-03-03T01:10:40.059Z,0.00
2023-03-03T01:11:40.063Z,0.00
2023-03-03T01:12:40.059Z,0.00
2023-03-03T01:13:40.026Z,0.00
2023-03-03T01:14:40.043Z,0.00
2023-03-03T01:15:40.084Z,0.00
2023-03-03T01:16:39.999Z,0.00
2023-03-03T01:17:40.021Z,0.00
2023-03-03T01:18:39.968Z,0.00
2023-03-03T01:19:39.978Z,0.00
2023-03-03T01:20:39.978Z,0.00
2023-03-03T01:21:39.938Z,0.00
2023-03-03T01:22:39.939Z,0.00
2023-03-03T01:23:39.939Z,0.00
2023-03-03T01:24:39.908Z,0.00
2023-03-03T01:25:39.914Z,0.00
2023-03-03T01:26:39.887Z,0.00
2023-03-03T01:27:39.881Z,0.00
2023-03-03T01:28:39.878Z,0.00
2023-03-03T01:29:39.848Z,0.00
2023-03-03T01:30:39.867Z,0.00
2023-03-03T01:31:39.917Z,0.00
2023-03-03T01:32:39.823Z,0.00
2023-03-03T01:33:39.849Z,0.00
2023-03-03T01:34:39.851Z,0.00
2023-03-03T01:35:39.821Z,0.00
2023-03-03T01:36:39.776Z,0.00
2023-03-03T01:37:39.775Z,0.00
2023-03-03T01:38:39.755Z,0.00
2023-03-03T01:39:39.744Z,0.00
2023-03-03T01:40:39.818Z,0.00
2023-03-03T01:41:39.743Z,0.00
2023-03-03T01:42:39.724Z,0.00
2023-03-03T01:43:39.713Z,0.00
2023-03-03T01:44:39.704Z,0.00
2023-03-03T01:45:39.723Z,0.00
2023-03-03T01:46:39.699Z,0.00
2023-03-03T01:47:39.661Z,0.00
2023-03-03T01:48:39.673Z,0.00
2023-03-03T01:49:39.645Z,0.00
2023-03-03T01:50:39.664Z,0.00
2023-03-03T01:51:39.618Z,0.00
2023-03-03T01:52:39.616Z,0.00
2023-03-03T01:53:39.601Z,0.00
2023-03-03T01:54:39.601Z,0.00
2023-03-03T01:55:39.622Z,0.00
2023-03-03T01:56:39.582Z,0.00
2023-03-03T01:57:39.573Z,0.00
2023-03-03T01:58:39.813Z,0.00
2023-03-03T01:59:39.590Z,0.00
2023-03-03T02:00:39.550Z,0.00
2023-03-03T02:01:39.566Z,0.00
2023-03-03T02:02:39.555Z,0.00
2023-03-03T02:03:39.504Z,0.00
2023-03-03T02:04:39.508Z,0.00
2023-03-03T02:05:39.480Z,0.00
2023-03-03T02:06:39.469Z,0.00
2023-03-03T02:07:39.452Z,0.00
2023-03-03T02:08:39.459Z,0.00
2023-03-03T02:09:39.428Z,0.00
2023-03-03T02:10:39.430Z,0.00
2023-03-03T02:11:39.400Z,0.00
2023-03-03T02:12:39.398Z,0.00
2023-03-03T02:13:39.393Z,0.00
2023-03-03T02:14:39.389Z,0.00
2023-03-03T02:15:39.383Z,0.00
2023-03-03T02:16:39.364Z,0.00
2023-03-03T02:17:39.342Z,0.00
2023-03-03T02:18:39.338Z,0.00
2023-03-03T02:19:39.325Z,0.00
2023-03-03T02:20:39.352Z,0.00
2023-03-03T02:21:39.305Z,0.00
2023-03-03T02:22:39.300Z,0.00
2023-03-03T02:23:39.284Z,0.00
2023-03-03T02:24:39.282Z,0.00
2023-03-03T02:25:39.288Z,0.00
2023-03-03T02:26:39.256Z,0.00
2023-03-03T02:27:39.246Z,0.00
2023-03-03T02:28:39.241Z,0.00
2023-03-03T02:29:39.213Z,0.00
2023-03-03T02:30:39.226Z,0.00
2023-03-03T02:31:39.273Z,0.00
2023-03-03T02:32:39.257Z,0.00
2023-03-03T02:33:39.191Z,0.00
2023-03-03T02:34:39.179Z,0.00
2023-03-03T02:35:39.254Z,0.00
2023-03-03T02:36:39.168Z,0.00
2023-03-03T02:37:39.141Z,0.00
2023-03-03T02:38:39.123Z,0.00
2023-03-03T02:39:39.116Z,0.00
2023-03-03T02:40:39.136Z,0.00
2023-03-03T02:41:39.086Z,0.00
2023-03-03T02:42:39.088Z,0.00
2023-03-03T02:43:39.072Z,0.00
2023-03-03T02:44:39.062Z,0.00
2023-03-03T02:45:39.245Z,0.00
2023-03-03T02:46:39.230Z,0.00
2023-03-03T02:47:39.020Z,0.00
2023-03-03T02:48:39.018Z,0.00
2023-03-03T02:49:38.999Z,0.00
2023-03-03T02:50:38.989Z,0.00
2023-03-03T02:51:38.987Z,0.00
2023-03-03T02:52:38.969Z,0.00
2023-03-03T02:53:38.964Z,0.00
2023-03-03T02:54:38.950Z,0.00
2023-03-03T02:55:38.942Z,0.00
2023-03-03T02:56:38.970Z,0.00
2023-03-03T02:57:38.915Z,0.00
2023-03-03T02:58:38.911Z,0.00
2023-03-03T02:59:38.894Z,0.00
2023-03-03T03:00:38.916Z,0.00
2023-03-03T03:01:38.934Z,0.00
2023-03-03T03:02:38.862Z,0.00
2023-03-03T03:03:38.855Z,0.00
2023-03-03T03:04:38.959Z,0.00
2023-03-03T03:05:38.841Z,0.00
2023-03-03T03:06:38.853Z,0.00
2023-03-03T03:07:38.813Z,0.00
2023-03-03T03:08:38.811Z,0.00
2023-03-03T03:09:38.802Z,0.00
2023-03-03T03:10:38.815Z,0.00
2023-03-03T03:11:38.771Z,0.00
2023-03-03T03:12:38.763Z,0.00
2023-03-03T03:13:38.740Z,0.00
2023-03-03T03:14:38.735Z,0.00
2023-03-03T03:15:38.720Z,0.00
2023-03-03T03:16:38.740Z,0.00
2023-03-03T03:17:38.714Z,0.00
2023-03-03T03:18:38.700Z,0.00
2023-03-03T03:19:38.687Z,0.00
2023-03-03T03:20:38.674Z,0.00
2023-03-03T03:21:38.679Z,0.00
2023-03-03T03:22:38.657Z,0.00
2023-03-03T03:23:38.640Z,0.00
2023-03-03T03:24:38.630Z,0.00
2023-03-03T03:25:38.611Z,0.00
2023-03-03T03:26:38.623Z,0.00
2023-03-03T03:27:38.599Z,0.00
2023-03-03T03:28:38.650Z,0.00
2023-03-03T03:29:38.576Z,0.00
2023-03-03T03:30:38.651Z,0.00
2023-03-03T03:31:38.568Z,0.00
2023-03-03T03:32:38.549Z,0.00
2023-03-03T03:33:38.537Z,0.00
2023-03-03T03:34:38.535Z,0.00
2023-03-03T03:35:38.604Z,0.00
2023-03-03T03:36:38.537Z,0.00
2023-03-03T03:37:38.500Z,0.00
2023-03-03T03:38:38.489Z,0.00
2023-03-03T03:39:38.476Z,0.00
2023-03-03T03:40:38.476Z,0.00
2023-03-03T03:41:38.484Z,0.00
2023-03-03T03:42:38.440Z,0.00
2023-03-03T03:43:38.458Z,0.00
2023-03-03T03:44:39.082Z,0.00
2023-03-03T03:45:38.446Z,0.00
2023-03-03T03:46:38.423Z,0.00
2023-03-03T03:47:38.402Z,0.00
2023-03-03T03:48:38.398Z,0.00
2023-03-03T03:49:38.403Z,0.00
2023-03-03T03:50:38.376Z,0.00
2023-03-03T03:51:38.350Z,0.00
2023-03-03T03:52:38.352Z,0.00
2023-03-03T03:53:38.326Z,0.00
2023-03-03T03:54:38.318Z,0.00
2023-03-03T03:55:38.300Z,0.00
2023-03-03T03:56:38.313Z,0.00
2023-03-03T03:57:38.280Z,0.00
2023-03-03T03:58:38.269Z,0.00
2023-03-03T03:59:38.259Z,0.00
2023-03-03T04:00:38.268Z,0.00
2023-03-03T04:01:38.259Z,0.00
2023-03-03T04:02:38.328Z,0.00
2023-03-03T04:03:38.233Z,0.00
2023-03-03T04:04:38.210Z,0.00
2023-03-03T04:05:38.200Z,0.00
2023-03-03T04:06:38.201Z,0.00
2023-03-03T04:07:38.183Z,0.00
2023-03-03T04:08:38.172Z,0.00
2023-03-03T04:09:38.164Z,0.00
2023-03-03T04:10:38.158Z,0.00
2023-03-03T04:11:38.155Z,0.00
2023-03-03T04:12:38.147Z,0.00
2023-03-03T04:13:38.123Z,0.00
2023-03-03T04:14:38.116Z,0.00
2023-03-03T04:15:38.158Z,0.00
2023-03-03T04:16:38.097Z,0.00
2023-03-03T04:17:38.074Z,0.00
2023-03-03T04:18:38.077Z,0.00
2023-03-03T04:19:38.080Z,0.00
2023-03-03T04:20:38.063Z,0.00
2023-03-03T04:21:38.032Z,0.00
2023-03-03T04:22:38.052Z,0.00
2023-03-03T04:23:38.013Z,0.00
2023-03-03T04:24:38.001Z,0.00
2023-03-03T04:25:37.995Z,0.00
2023-03-03T04:26:37.993Z,0.00
2023-03-03T04:27:37.982Z,0.00
2023-03-03T04:28:37.962Z,0.00
2023-03-03T04:29:37.954Z,0.00
2023-03-03T04:30:37.962Z,0.00
2023-03-03T04:31:37.932Z,0.00
2023-03-03T04:32:37.935Z,0.00
2023-03-03T04:33:37.900Z,0.00
2023-03-03T04:34:37.908Z,0.00
2023-03-03T04:35:37.912Z,0.00
2023-03-03T04:36:37.892Z,0.00
2023-03-03T04:37:37.872Z,0.00
2023-03-03T04:38:37.858Z,0.00
2023-03-03T04:39:37.839Z,0.00
2023-03-03T04:40:37.842Z,0.00
2023-03-03T04:41:37.826Z,0.00
2023-03-03T04:42:37.829Z,0.00
2023-03-03T04:43:37.802Z,0.00
2023-03-03T04:44:37.789Z,0.00
2023-03-03T04:45:37.786Z,0.00
2023-03-03T04:46:37.827Z,0.00
2023-03-03T04:47:37.779Z,0.00
2023-03-03T04:48:37.747Z,0.00
2023-03-03T04:49:37.739Z,0.00
2023-03-03T04:50:37.727Z,0.00
2023-03-03T04:51:37.718Z,0.00
2023-03-03T04:52:37.730Z,0.00
2023-03-03T04:53:37.699Z,0.00
2023-03-03T04:54:37.687Z,0.00
2023-03-03T04:55:37.679Z,0.00
2023-03-03T04:56:37.687Z,0.00
2023-03-03T04:57:37.677Z,0.00
2023-03-03T04:58:37.654Z,0.00
2023-03-03T04:59:37.695Z,0.00
2023-03-03T05:00:37.647Z,0.00
2023-03-03T05:01:37.685Z,0.00
2023-03-03T05:02:37.634Z,0.00
2023-03-03T05:03:37.582Z,0.00
2023-03-03T05:04:37.605Z,0.00
2023-03-03T05:05:37.571Z,0.00
2023-03-03T05:06:37.573Z,0.00
2023-03-03T05:07:37.581Z,0.00
2023-03-03T05:08:37.541Z,0.00
2023-03-03T05:09:37.519Z,0.00
2023-03-03T05:10:37.517Z,0.00
2023-03-03T05:11:37.507Z,0.00
2023-03-03T05:12:37.490Z,0.00
2023-03-03T05:13:37.497Z,0.00
2023-03-03T05:14:37.512Z,0.00
2023-03-03T05:15:37.455Z,0.00
2023-03-03T05:16:37.453Z,0.00
2023-03-03T05:17:37.434Z,0.00
2023-03-03T05:18:37.457Z,0.00
2023-03-03T05:19:37.407Z,0.00
2023-03-03T05:20:37.416Z,0.00
2023-03-03T05:21:37.984Z,0.00
2023-03-03T05:22:37.397Z,0.00
2023-03-03T05:23:37.396Z,0.00
2023-03-03T05:24:37.387Z,0.00
2023-03-03T05:25:37.363Z,0.00
2023-03-03T05:26:37.372Z,0.00
2023-03-03T05:27:37.336Z,0.00
2023-03-03T05:28:37.340Z,0.00
2023-03-03T05:29:37.320Z,0.00
2023-03-03T05:30:37.365Z,0.00
2023-03-03T05:31:37.350Z,0.00
2023-03-03T05:32:37.290Z,0.00
2023-03-03T05:33:37.284Z,0.00
2023-03-03T05:34:37.269Z,0.00
2023-03-03T05:35:37.336Z,0.00
2023-03-03T05:36:37.240Z,0.00
2023-03-03T05:37:37.241Z,0.00
2023-03-03T05:38:37.230Z,0.00
2023-03-03T05:39:37.169Z,1.00
2023-03-03T05:40:37.185Z,1.00
2023-03-03T05:41:37.128Z,1.00
2023-03-03T05:42:37.161Z,1.00
2023-03-03T05:43:37.200Z,0.00
2023-03-03T05:44:37.119Z,2.00
2023-03-03T05:45:37.095Z,2.00
2023-03-03T05:46:37.098Z,1.00
2023-03-03T05:47:37.073Z,1.00
2023-03-03T05:48:37.079Z,2.00
2023-03-03T05:49:37.063Z,3.00
2023-03-03T05:50:37.061Z,4.00
2023-03-03T05:51:37.021Z,4.00
2023-03-03T05:52:37.033Z,6.00
2023-03-03T05:53:37.027Z,4.00
2023-03-03T05:54:37.019Z,7.00
2023-03-03T05:55:36.989Z,9.00
2023-03-03T05:56:36.972Z,9.00
2023-03-03T05:57:36.967Z,11.00
2023-03-03T05:58:36.981Z,14.00
2023-03-03T05:59:36.951Z,14.00
2023-03-03T06:00:36.978Z,15.00
2023-03-03T06:01:36.940Z,20.00
2023-03-03T06:02:36.934Z,22.00
2023-03-03T06:03:36.917Z,27.00
2023-03-03T06:04:36.926Z,29.00
2023-03-03T06:05:36.907Z,35.00
2023-03-03T06:06:36.904Z,40.00
2023-03-03T06:07:36.910Z,43.00
2023-03-03T06:08:36.879Z,51.00
2023-03-03T06:09:36.895Z,50.00
2023-03-03T06:10:36.864Z,56.00
2023-03-03T06:11:36.830Z,67.00
2023-03-03T06:12:36.808Z,70.00
2023-03-03T06:13:36.810Z,74.00
2023-03-03T06:14:36.847Z,81.00
2023-03-03T06:15:36.860Z,90.00
2023-03-03T06:16:36.799Z,98.00
2023-03-03T06:17:36.777Z,104.00
2023-03-03T06:18:37.654Z,114.00
2023-03-03T06:19:37.419Z,126.00
2023-03-03T06:20:36.814Z,145.00
2023-03-03T06:21:36.798Z,150.00
2023-03-03T06:22:36.764Z,150.00
2023-03-03T06:23:36.750Z,154.00
2023-03-03T06:24:36.925Z,174.00
2023-03-03T06:25:36.778Z,196.00
2023-03-03T06:26:36.871Z,197.00
2023-03-03T06:27:36.843Z,196.00
2023-03-03T06:28:36.770Z,210.00
2023-03-03T06:29:36.716Z,236.00
2023-03-03T06:30:36.748Z,240.00
2023-03-03T06:31:37.585Z,248.00
2023-03-03T06:32:36.665Z,270.00
2023-03-03T06:33:36.591Z,281.00
2023-03-03T06:34:36.584Z,304.00
2023-03-03T06:35:36.638Z,316.00
2023-03-03T06:36:36.554Z,312.00
2023-03-03T06:37:36.564Z,326.00
2023-03-03T06:38:36.567Z,341.00
2023-03-03T06:39:36.564Z,335.00
2023-03-03T06:40:36.523Z,351.00
2023-03-03T06:41:36.530Z,393.00
2023-03-03T06:42:36.493Z,410.00
2023-03-03T06:43:36.485Z,406.00
2023-03-03T06:44:36.477Z,418.00
2023-03-03T06:45:36.614Z,457.00
2023-03-03T06:46:36.490Z,499.00
2023-03-03T06:47:36.471Z,532.00
2023-03-03T06:48:36.472Z,510.00
2023-03-03T06:49:36.506Z,538.00
2023-03-03T06:50:36.469Z,565.00
2023-03-03T06:51:36.436Z,554.00
2023-03-03T06:52:36.420Z,572.00
2023-03-03T06:53:36.430Z,620.00
2023-03-03T06:54:36.400Z,655.00
2023-03-03T06:55:36.401Z,647.00
2023-03-03T06:56:36.402Z,613.00
2023-03-03T06:57:36.374Z,639.00
2023-03-03T06:58:36.348Z,680.00
2023-03-03T06:59:36.359Z,676.00
2023-03-03T07:00:36.360Z,673.00
2023-03-03T07:01:36.334Z,662.00
2023-03-03T07:02:36.320Z,669.00
2023-03-03T07:03:36.344Z,694.00
2023-03-03T07:04:36.331Z,743.00
2023-03-03T07:05:36.307Z,745.00
2023-03-03T07:06:36.280Z,770.00
2023-03-03T07:07:36.276Z,739.00
2023-03-03T07:08:36.265Z,742.00
2023-03-03T07:09:36.296Z,757.00
2023-03-03T07:10:36.245Z,789.00
2023-03-03T07:11:36.225Z,821.00
2023-03-03T07:12:36.238Z,842.00
2023-03-03T07:13:36.210Z,850.00
2023-03-03T07:14:36.217Z,894.00
2023-03-03T07:15:36.207Z,955.00
2023-03-03T07:16:36.214Z,932.00
2023-03-03T07:17:36.154Z,923.00
2023-03-03T07:18:36.146Z,943.00
2023-03-03T07:19:36.135Z,1016.00
2023-03-03T07:20:36.142Z,1026.00
2023-03-03T07:21:36.125Z,1023.00
2023-03-03T07:22:36.111Z,1041.00
2023-03-03T07:23:36.091Z,1041.00
2023-03-03T07:24:36.083Z,1040.00
2023-03-03T07:25:36.167Z,1042.00
2023-03-03T07:26:36.072Z,1074.00
2023-03-03T07:27:36.249Z,1097.00
2023-03-03T07:28:36.075Z,1123.00
2023-03-03T07:29:36.051Z,1128.00
2023-03-03T07:30:36.070Z,1187.00
2023-03-03T07:31:36.032Z,1226.00
2023-03-03T07:32:36.060Z,1278.00
2023-03-03T07:33:36.006Z,1403.00
2023-03-03T07:34:36.019Z,1614.00
2023-03-03T07:35:36.050Z,1847.00
2023-03-03T07:36:35.994Z,1900.00
2023-03-03T07:37:35.966Z,1964.00
2023-03-03T07:38:35.988Z,1937.00
2023-03-03T07:39:38.318Z,1923.00
2023-03-03T07:40:35.952Z,2046.00
2023-03-03T07:41:35.925Z,2044.00
2023-03-03T07:42:35.935Z,2083.00
2023-03-03T07:43:35.961Z,2098.00
2023-03-03T07:44:35.954Z,1977.00
2023-03-03T07:45:35.881Z,2038.00
2023-03-03T07:46:35.881Z,2230.00
2023-03-03T07:47:35.872Z,2342.00
2023-03-03T07:48:35.858Z,2283.00
2023-03-03T07:49:35.878Z,2207.00
2023-03-03T07:50:36.153Z,2245.00
2023-03-03T07:51:35.860Z,2277.00
2023-03-03T07:52:35.854Z,2157.00
2023-03-03T07:53:35.834Z,2076.00
2023-03-03T07:54:35.808Z,2082.00
2023-03-03T07:55:35.856Z,2195.00
2023-03-03T07:56:35.801Z,2414.00
2023-03-03T07:57:35.836Z,2429.00
2023-03-03T07:58:35.763Z,2369.00
2023-03-03T07:59:35.723Z,2631.00
2023-03-03T08:00:35.764Z,2718.00
2023-03-03T08:01:35.745Z,2553.00
2023-03-03T08:02:35.678Z,2527.00
2023-03-03T08:03:35.680Z,2525.00
2023-03-03T08:04:35.756Z,2557.00
2023-03-03T08:05:35.701Z,2744.00
2023-03-03T08:06:35.667Z,2820.00
2023-03-03T08:07:35.626Z,2832.00
2023-03-03T08:08:35.613Z,2986.00
2023-03-03T08:09:35.608Z,3058.00
2023-03-03T08:10:35.671Z,3033.00
2023-03-03T08:11:35.586Z,3131.00
2023-03-03T08:12:35.578Z,3198.00
2023-03-03T08:13:35.566Z,3325.00
2023-03-03T08:14:35.566Z,3164.00
2023-03-03T08:15:35.627Z,3278.00
2023-03-03T08:16:35.526Z,3154.00
2023-03-03T08:17:35.528Z,2863.00
2023-03-03T08:18:35.506Z,3392.00
2023-03-03T08:19:35.512Z,3357.00
2023-03-03T08:20:35.493Z,3131.00
2023-03-03T08:21:35.484Z,3028.00
2023-03-03T08:22:35.462Z,3232.00
2023-03-03T08:23:35.454Z,3377.00
2023-03-03T08:24:38.075Z,3248.00
2023-03-03T08:25:35.482Z,3348.00
2023-03-03T08:26:35.435Z,3615.00
2023-03-03T08:27:35.427Z,3770.00
2023-03-03T08:28:35.407Z,3727.00
2023-03-03T08:29:35.378Z,3727.00
2023-03-03T08:30:35.389Z,3620.00
2023-03-03T08:31:41.558Z,3499.00
2023-03-03T08:32:36.472Z,3538.00
2023-03-03T08:33:35.348Z,4068.00
2023-03-03T08:34:35.337Z,3783.00
2023-03-03T08:35:35.451Z,3679.00
2023-03-03T08:36:35.387Z,3896.00
2023-03-03T08:37:35.295Z,4093.00
2023-03-03T08:38:35.279Z,4235.00
2023-03-03T08:39:35.274Z,4056.00
2023-03-03T08:40:35.264Z,3734.00
2023-03-03T08:41:35.283Z,3764.00
2023-03-03T08:42:35.236Z,4175.00
2023-03-03T08:43:35.225Z,4413.00
2023-03-03T08:44:35.231Z,3858.00
2023-03-03T08:45:35.289Z,3857.00
2023-03-03T08:46:35.289Z,4340.00
2023-03-03T08:47:35.211Z,4477.00
2023-03-03T08:48:35.180Z,4627.00
2023-03-03T08:49:35.176Z,4556.00
2023-03-03T08:50:35.173Z,4222.00
2023-03-03T08:51:35.150Z,4231.00
2023-03-03T08:52:35.358Z,4129.00
2023-03-03T08:53:35.168Z,4120.00
2023-03-03T08:54:35.184Z,4073.00
2023-03-03T08:55:35.180Z,4054.00
2023-03-03T08:56:35.125Z,4198.00
2023-03-03T08:57:35.128Z,4312.00
2023-03-03T08:58:36.342Z,4523.00
2023-03-03T08:59:35.119Z,4410.00
2023-03-03T09:00:35.084Z,4214.00
2023-03-03T09:01:35.156Z,4151.00
2023-03-03T09:02:35.120Z,4157.00
2023-03-03T09:03:35.054Z,4655.00
2023-03-03T09:04:35.101Z,4960.00
2023-03-03T09:05:35.192Z,5416.00
2023-03-03T09:06:35.053Z,5956.00
2023-03-03T09:07:35.023Z,6319.00
2023-03-03T09:08:35.036Z,5889.00
2023-03-03T09:09:35.027Z,5460.00
2023-03-03T09:10:34.979Z,5388.00
2023-03-03T09:11:34.992Z,5202.00
2023-03-03T09:12:34.972Z,5243.00
2023-03-03T09:13:34.962Z,5348.00
2023-03-03T09:14:34.925Z,6010.00
2023-03-03T09:15:34.957Z,6380.00
2023-03-03T09:16:35.007Z,6164.00
2023-03-03T09:17:34.912Z,6088.00
2023-03-03T09:18:34.921Z,6567.00
2023-03-03T09:19:37.274Z,6318.00
2023-03-03T09:20:34.871Z,5963.00
2023-03-03T09:21:34.866Z,5865.00
2023-03-03T09:22:34.834Z,6192.00
2023-03-03T09:23:34.887Z,6266.00
2023-03-03T09:24:34.814Z,6520.00
2023-03-03T09:25:34.809Z,7147.00
2023-03-03T09:26:34.779Z,7350.00
2023-03-03T09:27:34.778Z,7222.00
2023-03-03T09:28:34.769Z,7195.00
2023-03-03T09:29:34.752Z,7153.00
2023-03-03T09:30:34.751Z,7116.00
2023-03-03T09:31:34.851Z,7847.00
2023-03-03T09:32:34.750Z,8757.00
2023-03-03T09:33:34.717Z,9789.00
2023-03-03T09:34:34.714Z,11000.00
2023-03-03T09:35:34.724Z,11100.00
2023-03-03T09:36:34.680Z,10656.00
2023-03-03T09:37:34.705Z,10594.00
2023-03-03T09:38:34.656Z,10873.00
2023-03-03T09:39:34.667Z,10401.00
2023-03-03T09:40:34.641Z,10493.00
2023-03-03T09:41:34.649Z,10844.00
2023-03-03T09:42:34.666Z,10777.00
2023-03-03T09:43:34.588Z,10731.00
2023-03-03T09:44:34.636Z,10859.00
2023-03-03T09:45:34.661Z,10620.00
2023-03-03T09:46:34.621Z,10601.00
2023-03-03T09:47:34.592Z,10816.00
2023-03-03T09:48:34.571Z,10794.00
2023-03-03T09:49:34.540Z,10621.00
2023-03-03T09:50:34.528Z,10963.00
2023-03-03T09:51:34.645Z,11179.00
2023-03-03T09:52:34.510Z,11290.00
2023-03-03T09:53:34.500Z,11262.00
2023-03-03T09:54:37.179Z,11697.00
2023-03-03T09:55:35.976Z,12101.00
2023-03-03T09:56:34.476Z,12114.00
2023-03-03T09:57:34.448Z,12547.00
2023-03-03T09:58:34.493Z,12986.00
2023-03-03T09:59:34.505Z,12484.00
2023-03-03T10:00:34.415Z,11616.00
2023-03-03T10:01:34.441Z,11772.00
2023-03-03T10:02:34.440Z,11977.00
2023-03-03T10:03:34.394Z,11834.00
2023-03-03T10:04:34.460Z,11772.00
2023-03-03T10:05:34.637Z,11979.00
2023-03-03T10:06:34.473Z,11469.00
2023-03-03T10:07:34.373Z,10578.00
2023-03-03T10:08:34.345Z,10728.00
2023-03-03T10:09:34.326Z,11431.00
2023-03-03T10:10:34.320Z,11216.00
2023-03-03T10:11:34.355Z,10414.00
2023-03-03T10:12:34.294Z,9949.00
2023-03-03T10:13:34.274Z,10102.00
2023-03-03T10:14:34.264Z,10313.00
2023-03-03T10:15:34.244Z,9601.00
2023-03-03T10:16:34.287Z,8821.00
2023-03-03T10:17:34.234Z,8429.00
2023-03-03T10:18:34.215Z,8274.00
2023-03-03T10:19:34.303Z,8226.00
2023-03-03T10:20:44.105Z,8324.00
2023-03-03T10:21:35.264Z,8498.00
2023-03-03T10:22:34.193Z,8630.00
2023-03-03T10:23:34.218Z,8955.00
2023-03-03T10:24:34.152Z,9366.00
2023-03-03T10:25:34.142Z,9849.00
2023-03-03T10:26:44.298Z,11322.00
2023-03-03T10:27:35.140Z,12238.00
2023-03-03T10:28:34.122Z,12054.00
2023-03-03T10:29:34.138Z,11876.00
2023-03-03T10:30:41.096Z,12827.00
2023-03-03T10:31:35.353Z,13143.00
2023-03-03T10:32:34.237Z,13928.00
2023-03-03T10:33:34.342Z,14724.00
2023-03-03T10:34:34.103Z,15096.00
2023-03-03T10:35:34.065Z,16263.00
2023-03-03T10:36:34.060Z,15132.00
2023-03-03T10:37:34.033Z,14691.00
2023-03-03T10:38:34.569Z,14940.00
2023-03-03T10:39:34.020Z,14471.00
2023-03-03T10:40:34.207Z,14587.00
2023-03-03T10:41:33.981Z,14158.00
2023-03-03T10:42:33.994Z,14577.00
2023-03-03T10:43:33.987Z,13965.00
2023-03-03T10:44:33.948Z,15816.00
2023-03-03T10:45:34.015Z,16975.00
2023-03-03T10:46:33.971Z,18869.00
2023-03-03T10:47:33.945Z,18842.00
2023-03-03T10:48:33.913Z,18664.00
2023-03-03T10:49:34.113Z,17732.00
2023-03-03T10:50:33.922Z,17842.00
2023-03-03T10:51:33.875Z,17093.00
2023-03-03T10:52:34.180Z,16384.00
2023-03-03T10:53:33.885Z,16566.00
2023-03-03T10:54:33.887Z,15913.00
2023-03-03T10:55:33.837Z,15358.00
2023-03-03T10:56:50.446Z,16185.00
2023-03-03T10:57:34.847Z,16585.00
2023-03-03T10:58:33.850Z,15910.00
2023-03-03T10:59:33.779Z,15766.00
2023-03-03T11:00:33.772Z,15727.00
2023-03-03T11:01:33.803Z,15481.00
2023-03-03T11:02:33.849Z,14327.00
2023-03-03T11:03:33.821Z,13849.00
2023-03-03T11:04:33.782Z,14645.00
2023-03-03T11:05:33.765Z,15256.00
2023-03-03T11:06:33.719Z,15012.00
2023-03-03T11:07:33.722Z,14388.00
2023-03-03T11:08:33.704Z,14176.00
2023-03-03T11:09:33.722Z,13744.00
2023-03-03T11:10:33.692Z,13276.00
2023-03-03T11:11:34.085Z,13436.00
2023-03-03T11:12:33.652Z,13551.00
2023-03-03T11:13:33.652Z,13059.00
2023-03-03T11:14:33.854Z,12460.00
2023-03-03T11:15:33.640Z,12033.00
2023-03-03T11:16:33.678Z,11846.00
2023-03-03T11:17:33.592Z,11948.00
2023-03-03T11:18:33.631Z,12219.00
2023-03-03T11:19:33.568Z,12644.00
2023-03-03T11:20:33.565Z,12697.00
2023-03-03T11:21:33.590Z,12199.00
2023-03-03T11:22:33.553Z,12541.00
2023-03-03T11:23:33.522Z,12864.00
2023-03-03T11:24:33.536Z,12979.00
2023-03-03T11:25:33.644Z,12909.00
2023-03-03T11:26:33.490Z,12700.00
2023-03-03T11:27:33.476Z,13272.00
2023-03-03T11:28:33.488Z,13280.00
2023-03-03T11:29:33.483Z,12792.00
2023-03-03T11:30:33.499Z,12375.00
2023-03-03T11:31:33.472Z,12418.00
2023-03-03T11:32:33.572Z,12614.00
2023-03-03T11:33:33.435Z,12890.00
2023-03-03T11:34:33.404Z,13115.00
2023-03-03T11:35:33.451Z,13104.00
2023-03-03T11:36:35.059Z,13348.00
2023-03-03T11:37:34.036Z,13037.00
2023-03-03T11:38:33.374Z,13159.00
2023-03-03T11:39:33.403Z,13699.00
2023-03-03T11:40:33.337Z,13903.00
2023-03-03T11:41:33.353Z,13757.00
2023-03-03T11:42:33.317Z,13107.00
2023-03-03T11:43:36.904Z,13063.00
2023-03-03T11:44:33.296Z,13533.00
2023-03-03T11:45:33.297Z,14110.00
2023-03-03T11:46:33.347Z,14242.00
2023-03-03T11:47:33.277Z,13816.00
2023-03-03T11:48:33.279Z,13607.00
2023-03-03T11:49:33.236Z,13682.00
2023-03-03T11:50:33.237Z,13654.00
2023-03-03T11:51:33.245Z,13251.00
2023-03-03T11:52:33.206Z,13376.00
2023-03-03T11:53:33.266Z,13297.00
2023-03-03T11:54:33.186Z,13854.00
2023-03-03T11:55:33.173Z,14183.00
2023-03-03T11:56:33.166Z,13995.00
2023-03-03T11:57:33.145Z,13575.00
2023-03-03T11:58:33.199Z,12785.00
2023-03-03T11:59:33.169Z,12157.00
2023-03-03T12:00:33.158Z,11865.00
2023-03-03T12:01:33.133Z,12258.00
2023-03-03T12:02:33.188Z,12327.00
2023-03-03T12:03:33.130Z,12427.00
2023-03-03T12:04:33.080Z,13208.00
2023-03-03T12:05:33.102Z,14029.00
2023-03-03T12:06:33.077Z,14556.00
2023-03-03T12:07:33.042Z,14814.00
2023-03-03T12:08:33.046Z,14493.00
2023-03-03T12:09:33.022Z,17225.00
2023-03-03T12:10:33.031Z,15502.00
2023-03-03T12:11:33.052Z,15269.00
2023-03-03T12:12:33.007Z,14981.00
2023-03-03T12:13:33.004Z,13972.00
2023-03-03T12:14:32.976Z,12974.00
2023-03-03T12:15:32.953Z,13237.00
2023-03-03T12:16:32.965Z,12834.00
2023-03-03T12:17:32.936Z,12406.00
2023-03-03T12:18:33.119Z,11715.00
2023-03-03T12:19:32.919Z,11512.00
2023-03-03T12:20:32.904Z,11162.00
2023-03-03T12:21:33.048Z,11288.00
2023-03-03T12:22:32.958Z,11401.00
2023-03-03T12:23:32.968Z,11542.00
2023-03-03T12:24:32.938Z,11620.00
2023-03-03T12:25:32.923Z,11680.00
2023-03-03T12:26:32.962Z,12287.00
2023-03-03T12:27:32.938Z,12046.00
2023-03-03T12:28:32.915Z,12145.00
2023-03-03T12:29:32.893Z,12852.00
2023-03-03T12:30:32.890Z,13072.00
2023-03-03T12:31:32.933Z,13142.00
2023-03-03T12:32:32.948Z,13954.00
2023-03-03T12:33:32.839Z,13787.00
2023-03-03T12:34:32.848Z,12307.00
2023-03-03T12:35:32.861Z,10780.00
2023-03-03T12:36:32.815Z,10817.00